KHIB

Range Regional Airport

Hibbing, Minnesota, USA
METAR KHIB 221453Z AUTO 00000KT 10SM CLR 19/09 A3002 RMK AO2 SLP170 T01890089 58002
Observed Flight Rules
May-22 @ 14:53 UTC (42 minutes ago) Visual Flight Rules
Visibility Clouds
10 miles
  • Clear skies
Temperatures Readings
Current 19°C / 66°F
Dewpoint 9°C / 48°F
Humidity 52%
Altimeter 30.02" Hg
Pressure 1017 hPa
Elevation 412
METAR KHIB 221453Z AUTO 00000KT 10SM CLR 19/09 A3002 RMK AO2 SLP170 T01890089 58002
Observed Flight Rules
May-22 @ 14:53 UTC
(42 minutes ago)
VFR
Clouds
  • Clear skies
Temperature Dewpoint
19°C / 66°F 9°C / 48°F
Humidity Altimeter Pressure
52% 30.02" Hg 1017 hPa